Time;durP1;ratioP1;P1;durP2;ratioP2;P2;SDS_P1;SDS_P2;PMS_P1;PMS_P2;Temp;Humidity;BMP_temperature;BMP_pressure;BME280_temperature;BME280_humidity;BME280_pressure;Samples;Min_cycle;Max_cycle;Signal;HPM_P1;HPM_P2
2023/07/25 00:00:18;;;;;;;;;;;;;;;;;;4978407;28;19926;-85
2023/07/25 00:02:44;;;;;;;;;;;;;;;;;;4969478;28;19926;-86
2023/07/25 00:05:10;;;;;;;;;;;;;;;;;;4978469;28;20389;-86
2023/07/25 00:07:36;;;;;;;;;;;;;;;;;;4982671;28;20499;-86
2023/07/25 00:10:02;;;;;;;;;;;;;;;;;;4987357;28;19986;-85
2023/07/25 00:12:28;;;;;;;;;;;;;;;;;;4975831;28;19926;-86
2023/07/25 00:14:54;;;;;;;;;;;;;;;;;;4987193;28;19932;-86
2023/07/25 00:17:20;;;;;;;;;;;;;;;;;;4971881;28;19965;-86
2023/07/25 00:19:46;;;;;;;;;;;;;;;;;;4990540;28;20004;-86
2023/07/25 00:22:12;;;;;;;;;;;;;;;;;;4965441;28;19984;-87
2023/07/25 00:24:38;;;;;;;;;;;;;;;;;;5003553;28;19945;-86
2023/07/25 00:27:04;;;;;;;;;;;;;;;;;;4971809;28;20275;-86
2023/07/25 00:29:30;;;;;;;;;;;;;;;;;;4970579;28;19945;-85
2023/07/25 00:31:56;;;;;;;;;;;;;;;;;;4971354;28;19921;-84
2023/07/25 00:34:22;;;;;;;;;;;;;;;;;;4987876;28;19926;-85
2023/07/25 00:36:48;;;;;;;;;;;;;;;;;;4974655;28;20359;-85
2023/07/25 00:39:14;;;;;;;;;;;;;;;;;;4988729;28;19975;-85
2023/07/25 00:41:40;;;;;;;;;;;;;;;;;;4971281;28;19918;-85
2023/07/25 00:44:06;;;;;;;;;;;;;;;;;;4971069;28;20356;-85
2023/07/25 00:46:32;;;;;;;;;;;;;;;;;;4987046;28;20333;-85
2023/07/25 00:48:58;;;;;;;;;;;;;;;;;;4970560;28;20041;-84
2023/07/25 00:51:24;;;;;;;;;;;;;;;;;;4990556;28;19926;-85
2023/07/25 00:53:50;;;;;;;;;;;;;;;;;;4990694;28;19979;-84
2023/07/25 00:56:15;;;;;;;;;;;;;;;;;;4989194;28;20016;-85
2023/07/25 00:58:41;;;;;;;;;;;;;;;;;;4985698;28;19937;-84
2023/07/25 01:01:07;;;;;;;;;;;;;;;;;;4990726;28;19922;-85
2023/07/25 01:03:33;;;;;;;;;;;;;;;;;;4973219;28;19948;-85
2023/07/25 01:05:59;;;;;;;;;;;;;;;;;;4974543;28;20020;-85
2023/07/25 01:08:25;;;;;;;;;;;;;;;;;;4990269;28;19976;-85
2023/07/25 01:10:51;;;;;;;;;;;;;;;;;;4974540;28;19948;-86
2023/07/25 01:13:17;;;;;;;;;;;;;;;;;;4990096;28;19926;-84
2023/07/25 01:15:43;;;;;;;;;;;;;;;;;;4973907;28;19929;-85
2023/07/25 01:18:09;;;;;;;;;;;;;;;;;;4987347;28;20385;-85
2023/07/25 01:20:35;;;;;;;;;;;;;;;;;;4990192;28;20359;-85
2023/07/25 01:23:01;;;;;;;;;;;;;;;;;;4974298;28;19973;-86
2023/07/25 01:25:27;;;;;;;;;;;;;;;;;;4989784;28;19968;-85
2023/07/25 01:27:53;;;;;;;;;;;;;;;;;;4980044;28;20342;-85
2023/07/25 01:30:19;;;;;;;;;;;;;;;;;;4986801;28;20017;-85
2023/07/25 01:32:45;;;;;;;;;;;;;;;;;;4969837;28;19922;-86
2023/07/25 01:35:11;;;;;;;;;;;;;;;;;;4970972;28;19948;-86
2023/07/25 01:37:37;;;;;;;;;;;;;;;;;;4986720;28;19926;-85
2023/07/25 01:40:03;;;;;;;;;;;;;;;;;;4987066;28;20363;-85
2023/07/25 01:42:29;;;;;;;;;;;;;;;;;;4986626;28;20349;-85
2023/07/25 01:44:55;;;;;;;;;;;;;;;;;;4970042;28;20028;-85
2023/07/25 01:47:25;;;;;;;;;;;;;;;;;;4989246;28;19949;-86
2023/07/25 01:49:51;;;;;;;;;;;;;;;;;;4973274;28;20004;-86
2023/07/25 01:52:17;;;;;;;;;;;;;;;;;;5006287;28;19972;-86
2023/07/25 01:54:43;;;;;;;;;;;;;;;;;;4989368;28;20367;-85
2023/07/25 01:57:09;;;;;;;;;;;;;;;;;;5006543;28;19928;-86
2023/07/25 01:59:35;;;;;;;;;;;;;;;;;;4988800;28;20275;-85
2023/07/25 02:02:01;;;;;;;;;;;;;;;;;;4990115;28;19922;-85
2023/07/25 02:04:27;;;;;;;;;;;;;;;;;;5005350;28;19925;-85
2023/07/25 02:06:53;;;;;;;;;;;;;;;;;;5006468;28;19922;-86
2023/07/25 02:09:19;;;;;;;;;;;;;;;;;;5008974;28;19932;-86
2023/07/25 02:11:45;;;;;;;;;;;;;;;;;;4994055;28;19925;-85
2023/07/25 02:14:11;;;;;;;;;;;;;;;;;;4973239;28;19921;-84
2023/07/25 02:16:37;;;;;;;;;;;;;;;;;;4968676;28;19921;-86
2023/07/25 02:19:03;;;;;;;;;;;;;;;;;;5005405;28;19975;-87
2023/07/25 02:21:29;;;;;;;;;;;;;;;;;;4998324;28;19974;-87
2023/07/25 02:23:55;;;;;;;;;;;;;;;;;;5011831;28;20251;-86
2023/07/25 02:26:21;;;;;;;;;;;;;;;;;;4989703;28;20026;-87
2023/07/25 02:28:47;;;;;;;;;;;;;;;;;;4972606;28;20410;-85
2023/07/25 02:31:13;;;;;;;;;;;;;;;;;;4989474;28;19921;-87
2023/07/25 02:33:39;;;;;;;;;;;;;;;;;;4988932;28;19970;-86
2023/07/25 02:36:05;;;;;;;;;;;;;;;;;;5020458;28;19922;-87
2023/07/25 02:38:31;;;;;;;;;;;;;;;;;;5005670;28;19970;-86
2023/07/25 02:40:57;;;;;;;;;;;;;;;;;;4995819;28;20355;-87
2023/07/25 02:43:23;;;;;;;;;;;;;;;;;;5025184;28;20381;-85
2023/07/25 02:45:49;;;;;;;;;;;;;;;;;;5007355;28;20325;-86
2023/07/25 02:48:15;;;;;;;;;;;;;;;;;;5004749;28;20390;-86
2023/07/25 02:50:41;;;;;;;;;;;;;;;;;;4973207;28;20021;-86
2023/07/25 02:53:07;;;;;;;;;;;;;;;;;;4989718;28;19921;-85
2023/07/25 02:55:33;;;;;;;;;;;;;;;;;;4965540;28;19921;-86
2023/07/25 02:57:59;;;;;;;;;;;;;;;;;;4989147;28;19925;-86
2023/07/25 03:00:25;;;;;;;;;;;;;;;;;;5005527;28;20386;-85
2023/07/25 03:02:51;;;;;;;;;;;;;;;;;;5004681;28;19932;-87
2023/07/25 03:05:17;;;;;;;;;;;;;;;;;;5005525;28;20366;-86
2023/07/25 03:07:43;;;;;;;;;;;;;;;;;;4988629;28;19926;-85
2023/07/25 03:10:09;;;;;;;;;;;;;;;;;;5005462;28;20279;-87
2023/07/25 03:12:35;;;;;;;;;;;;;;;;;;5005246;28;19922;-86
2023/07/25 03:15:01;;;;;;;;;;;;;;;;;;5006066;28;20397;-87
2023/07/25 03:17:27;;;;;;;;;;;;;;;;;;5005015;28;20490;-88
2023/07/25 03:19:53;;;;;;;;;;;;;;;;;;4987608;28;19933;-86
2023/07/25 03:22:19;;;;;;;;;;;;;;;;;;4999397;28;19921;-86
2023/07/25 03:24:45;;;;;;;;;;;;;;;;;;5007805;28;20003;-87
2023/07/25 03:27:11;;;;;;;;;;;;;;;;;;5021525;28;20008;-86
2023/07/25 03:29:37;;;;;;;;;;;;;;;;;;5004071;28;19921;-86
2023/07/25 03:32:03;;;;;;;;;;;;;;;;;;5005245;28;19979;-86
2023/07/25 03:34:28;;;;;;;;;;;;;;;;;;5004196;28;19925;-87
2023/07/25 03:36:54;;;;;;;;;;;;;;;;;;4988377;28;20335;-87
2023/07/25 03:39:20;;;;;;;;;;;;;;;;;;5004932;28;20256;-87
2023/07/25 03:41:46;;;;;;;;;;;;;;;;;;4996981;28;19921;-87
2023/07/25 03:44:16;;;;;;;;;;;;;;;;;;5023986;28;19932;-87
2023/07/25 03:46:42;;;;;;;;;;;;;;;;;;4998794;28;19964;-86
2023/07/25 03:49:08;;;;;;;;;;;;;;;;;;4970955;28;20445;-86
2023/07/25 03:51:36;;;;;;;;;;;;;;;;;;4982930;28;19921;-86
2023/07/25 03:54:02;;;;;;;;;;;;;;;;;;5007947;28;19973;-87
2023/07/25 03:56:28;;;;;;;;;;;;;;;;;;5008311;28;19987;-87
2023/07/25 03:58:54;;;;;;;;;;;;;;;;;;5007033;28;20355;-86
2023/07/25 04:01:20;;;;;;;;;;;;;;;;;;5010430;28;20273;-86
2023/07/25 04:03:46;;;;;;;;;;;;;;;;;;5007663;28;19922;-86
2023/07/25 04:06:12;;;;;;;;;;;;;;;;;;5014838;28;20001;-86
2023/07/25 04:08:38;;;;;;;;;;;;;;;;;;5011427;28;19922;-85
2023/07/25 04:11:04;;;;;;;;;;;;;;;;;;5011140;28;19928;-87
2023/07/25 04:13:30;;;;;;;;;;;;;;;;;;5027210;28;19921;-87
2023/07/25 04:15:56;;;;;;;;;;;;;;;;;;5009918;28;19965;-87
2023/07/25 04:18:22;;;;;;;;;;;;;;;;;;4974361;28;19933;-86
2023/07/25 04:20:48;;;;;;;;;;;;;;;;;;4974780;28;20375;-86
2023/07/25 04:23:15;;;;;;;;;;;;;;;;;;4976141;28;19922;-87
2023/07/25 04:25:40;;;;;;;;;;;;;;;;;;5007147;28;19921;-85
2023/07/25 04:28:06;;;;;;;;;;;;;;;;;;5018914;28;19974;-88
2023/07/25 04:30:32;;;;;;;;;;;;;;;;;;5010883;28;20355;-86
2023/07/25 04:32:58;;;;;;;;;;;;;;;;;;4996915;28;20287;-86
2023/07/25 04:35:24;;;;;;;;;;;;;;;;;;4991111;28;19922;-87
2023/07/25 04:37:50;;;;;;;;;;;;;;;;;;4959101;28;19926;-87
2023/07/25 04:40:16;;;;;;;;;;;;;;;;;;4991085;28;19928;-87
2023/07/25 04:42:42;;;;;;;;;;;;;;;;;;5006872;28;20012;-87
2023/07/25 04:45:08;;;;;;;;;;;;;;;;;;5006124;28;19921;-86
2023/07/25 04:47:34;;;;;;;;;;;;;;;;;;5027413;28;19925;-87
2023/07/25 04:50:00;;;;;;;;;;;;;;;;;;4997106;28;19922;-86
2023/07/25 04:52:26;;;;;;;;;;;;;;;;;;4974893;28;20012;-86
2023/07/25 04:54:57;;;;;;;;;;;;;;;;;;4974494;28;19974;-86
2023/07/25 04:57:23;;;;;;;;;;;;;;;;;;4975293;28;19926;-86
2023/07/25 04:59:49;;;;;;;;;;;;;;;;;;4974314;28;20329;-87
2023/07/25 05:02:14;;;;;;;;;;;;;;;;;;4974868;28;20317;-86
2023/07/25 05:04:40;;;;;;;;;;;;;;;;;;4989467;28;19926;-86
2023/07/25 05:07:06;;;;;;;;;;;;;;;;;;4974395;28;19979;-87
2023/07/25 05:09:32;;;;;;;;;;;;;;;;;;4959992;28;20021;-86
2023/07/25 05:11:58;;;;;;;;;;;;;;;;;;4990989;28;19933;-85
2023/07/25 05:14:24;;;;;;;;;;;;;;;;;;4990634;28;19949;-87
2023/07/25 05:16:50;;;;;;;;;;;;;;;;;;5023759;28;19929;-86
2023/07/25 05:19:16;;;;;;;;;;;;;;;;;;5026545;28;19972;-87
2023/07/25 05:21:42;;;;;;;;;;;;;;;;;;5010796;28;19936;-86
2023/07/25 05:24:08;;;;;;;;;;;;;;;;;;5026680;28;19947;-87
2023/07/25 05:26:34;;;;;;;;;;;;;;;;;;5006311;28;20018;-86
2023/07/25 05:29:00;;;;;;;;;;;;;;;;;;4989832;28;19937;-87
2023/07/25 05:31:26;;;;;;;;;;;;;;;;;;5007391;28;19930;-86
2023/07/25 05:33:52;;;;;;;;;;;;;;;;;;5006300;28;19999;-86
2023/07/25 05:36:18;;;;;;;;;;;;;;;;;;5014412;28;20358;-86
2023/07/25 05:38:43;;;;;;;;;;;;;;;;;;5009845;28;19925;-86
2023/07/25 05:41:09;;;;;;;;;;;;;;;;;;5025686;28;19933;-86
2023/07/25 05:43:35;;;;;;;;;;;;;;;;;;5009673;28;19922;-86
2023/07/25 05:46:01;;;;;;;;;;;;;;;;;;4989592;28;19929;-86
2023/07/25 05:48:27;;;;;;;;;;;;;;;;;;4990102;28;19961;-86
2023/07/25 05:50:53;;;;;;;;;;;;;;;;;;4990196;28;19932;-86
2023/07/25 05:53:19;;;;;;;;;;;;;;;;;;5007410;28;19930;-86
2023/07/25 05:55:45;;;;;;;;;;;;;;;;;;5026415;28;19925;-87
2023/07/25 05:58:11;;;;;;;;;;;;;;;;;;5009280;28;19925;-87
2023/07/25 06:00:37;;;;;;;;;;;;;;;;;;5010146;28;20023;-86
2023/07/25 06:03:03;;;;;;;;;;;;;;;;;;4990315;28;19925;-86
2023/07/25 06:05:29;;;;;;;;;;;;;;;;;;4990295;28;19933;-87
2023/07/25 06:07:55;;;;;;;;;;;;;;;;;;4976594;28;20428;-86
2023/07/25 06:10:21;;;;;;;;;;;;;;;;;;5023844;28;20452;-86
2023/07/25 06:12:47;;;;;;;;;;;;;;;;;;5009296;28;20260;-85
2023/07/25 06:15:13;;;;;;;;;;;;;;;;;;5024919;28;19922;-86
2023/07/25 06:17:39;;;;;;;;;;;;;;;;;;5015628;28;19926;-85
2023/07/25 06:20:05;;;;;;;;;;;;;;;;;;5005713;28;19973;-86
2023/07/25 06:22:31;;;;;;;;;;;;;;;;;;5014902;28;19965;-79
2023/07/25 06:24:57;;;;;;;;;;;;;;;;;;5029553;28;19924;-77
2023/07/25 06:27:23;;;;;;;;;;;;;;;;;;5094617;28;19926;-78
2023/07/25 06:29:49;;;;;;;;;;;;;;;;;;5025213;28;19922;-78
2023/07/25 06:32:15;;;;;;;;;;;;;;;;;;5017473;28;20256;-78
2023/07/25 06:34:40;;;;;;;;;;;;;;;;;;4988065;28;19921;-78
2023/07/25 06:37:06;;;;;;;;;;;;;;;;;;5007338;28;19922;-77
2023/07/25 06:39:32;;;;;;;;;;;;;;;;;;5011230;28;19980;-79
2023/07/25 06:41:58;;;;;;;;;;;;;;;;;;4988101;28;20400;-78
2023/07/25 06:44:24;;;;;;;;;;;;;;;;;;5021481;28;20016;-78
2023/07/25 06:46:50;;;;;;;;;;;;;;;;;;5013416;28;19921;-77
2023/07/25 06:49:16;;;;;;;;;;;;;;;;;;4984398;28;19929;-78
2023/07/25 06:51:42;;;;;;;;;;;;;;;;;;5004459;28;19925;-78
2023/07/25 06:54:08;;;;;;;;;;;;;;;;;;4987815;28;20051;-77
2023/07/25 06:56:34;;;;;;;;;;;;;;;;;;4988464;28;19926;-77
2023/07/25 06:59:00;;;;;;;;;;;;;;;;;;5003303;28;19986;-77
2023/07/25 07:01:27;;;;;;;;;;;;;;;;;;5006835;28;19933;-77
2023/07/25 07:03:54;;;;;;;;;;;;;;;;;;5002503;28;19931;-78
2023/07/25 07:06:20;;;;;;;;;;;;;;;;;;4990873;28;19956;-78
2023/07/25 07:08:46;;;;;;;;;;;;;;;;;;5023207;28;20387;-77
2023/07/25 07:11:11;;;;;;;;;;;;;;;;;;4987537;28;19930;-77
2023/07/25 07:13:37;;;;;;;;;;;;;;;;;;4987539;28;19932;-77
2023/07/25 07:16:03;;;;;;;;;;;;;;;;;;4987520;28;19976;-77
2023/07/25 07:18:29;;;;;;;;;;;;;;;;;;4970995;28;19975;-77
2023/07/25 07:20:55;;;;;;;;;;;;;;;;;;4988025;28;19925;-77
2023/07/25 07:23:21;;;;;;;;;;;;;;;;;;4984328;28;20378;-78
2023/07/25 07:25:47;;;;;;;;;;;;;;;;;;5004217;28;19948;-81
2023/07/25 07:28:13;;;;;;;;;;;;;;;;;;5011794;28;19987;-81
2023/07/25 07:30:39;;;;;;;;;;;;;;;;;;5009027;28;19926;-84
2023/07/25 07:33:05;;;;;;;;;;;;;;;;;;5016995;28;19925;-85
2023/07/25 07:35:31;;;;;;;;;;;;;;;;;;5006949;28;19933;-84
2023/07/25 07:37:57;;;;;;;;;;;;;;;;;;4981596;28;20394;-82
2023/07/25 07:40:23;;;;;;;;;;;;;;;;;;5020235;28;19926;-83
2023/07/25 07:42:49;;;;;;;;;;;;;;;;;;4995131;28;19922;-82
2023/07/25 07:45:15;;;;;;;;;;;;;;;;;;4977285;28;19921;-81
2023/07/25 07:47:41;;;;;;;;;;;;;;;;;;5018929;28;20020;-84
2023/07/25 07:50:07;;;;;;;;;;;;;;;;;;5011766;28;19921;-83
2023/07/25 07:52:40;;;;;;;;;;;;;;;;;;5010347;28;19933;-77
2023/07/25 07:55:05;;;;;;;;;;;;;;;;;;4985107;28;20012;-76
2023/07/25 07:57:31;;;;;;;;;;;;;;;;;;4992559;28;20005;-82
2023/07/25 07:59:57;;;;;;;;;;;;;;;;;;4994289;28;19945;-83
2023/07/25 08:02:23;;;;;;;;;;;;;;;;;;4988995;28;19932;-82
2023/07/25 08:04:49;;;;;;;;;;;;;;;;;;5023267;28;20013;-82
2023/07/25 08:07:15;;;;;;;;;;;;;;;;;;5011859;28;19922;-82
2023/07/25 08:09:41;;;;;;;;;;;;;;;;;;5012035;28;19928;-82
2023/07/25 08:12:08;;;;;;;;;;;;;;;;;;5026803;28;20515;-82
2023/07/25 08:14:33;;;;;;;;;;;;;;;;;;4976144;28;19968;-82
2023/07/25 08:17:00;;;;;;;;;;;;;;;;;;5006753;28;19925;-83
2023/07/25 08:19:26;;;;;;;;;;;;;;;;;;4994819;28;19925;-82
2023/07/25 08:21:52;;;;;;;;;;;;;;;;;;5026906;28;19982;-82
2023/07/25 08:24:18;;;;;;;;;;;;;;;;;;5008192;28;19921;-82
2023/07/25 08:26:44;;;;;;;;;;;;;;;;;;5009632;28;19922;-82
2023/07/25 08:29:10;;;;;;;;;;;;;;;;;;5014709;28;20416;-82
2023/07/25 08:31:36;;;;;;;;;;;;;;;;;;4976290;28;19929;-81
2023/07/25 08:34:02;;;;;;;;;;;;;;;;;;5008830;28;19925;-81
2023/07/25 08:36:28;;;;;;;;;;;;;;;;;;4993998;28;20306;-81
2023/07/25 08:38:54;;;;;;;;;;;;;;;;;;5014704;28;19922;-82
2023/07/25 08:41:20;;;;;;;;;;;;;;;;;;5010326;28;19928;-82
2023/07/25 08:43:46;;;;;;;;;;;;;;;;;;5011543;28;19989;-82
2023/07/25 08:46:13;;;;;;;;;;;;;;;;;;4977644;28;19977;-83
2023/07/25 08:48:39;;;;;;;;;;;;;;;;;;5006841;28;19922;-82
2023/07/25 08:51:05;;;;;;;;;;;;;;;;;;4990539;28;20406;-84
2023/07/25 08:53:31;;;;;;;;;;;;;;;;;;4972330;28;20025;-82
2023/07/25 08:55:57;;;;;;;;;;;;;;;;;;4988369;28;19929;-76
2023/07/25 08:58:23;;;;;;;;;;;;;;;;;;5005127;28;20012;-80
2023/07/25 09:00:49;;;;;;;;;;;;;;;;;;4977908;28;20283;-77
2023/07/25 09:03:15;;;;;;;;;;;;;;;;;;4972325;28;19962;-76
2023/07/25 09:05:41;;;;;;;;;;;;;;;;;;4990065;28;19997;-77
2023/07/25 09:08:07;;;;;;;;;;;;;;;;;;4973941;28;20020;-76
2023/07/25 09:10:33;;;;;;;;;;;;;;;;;;4989501;28;19929;-77
2023/07/25 09:12:59;;;;;;;;;;;;;;;;;;4989416;28;19926;-78
2023/07/25 09:15:25;;;;;;;;;;;;;;;;;;4976611;28;19983;-77
2023/07/25 09:17:51;;;;;;;;;;;;;;;;;;4985788;28;19926;-76
2023/07/25 09:20:16;;;;;;;;;;;;;;;;;;4986027;28;19933;-76
2023/07/25 09:22:42;;;;;;;;;;;;;;;;;;4989178;28;19972;-76
2023/07/25 09:25:08;;;;;;;;;;;;;;;;;;4977339;28;19922;-76
2023/07/25 09:27:34;;;;;;;;;;;;;;;;;;4982631;28;19925;-75
2023/07/25 09:30:00;;;;;;;;;;;;;;;;;;4988951;28;20470;-76
2023/07/25 09:32:27;;;;;;;;;;;;;;;;;;4989253;28;19926;-76
2023/07/25 09:34:54;;;;;;;;;;;;;;;;;;4954093;28;19926;-76
2023/07/25 09:37:20;;;;;;;;;;;;;;;;;;4969980;28;19922;-76
2023/07/25 09:39:46;;;;;;;;;;;;;;;;;;4969996;28;19929;-77
2023/07/25 09:42:12;;;;;;;;;;;;;;;;;;4976652;28;19926;-79
2023/07/25 09:44:38;;;;;;;;;;;;;;;;;;4973447;28;20005;-83
2023/07/25 09:47:04;;;;;;;;;;;;;;;;;;4974303;28;20378;-82
2023/07/25 09:49:30;;;;;;;;;;;;;;;;;;4972548;28;19922;-83
2023/07/25 09:51:56;;;;;;;;;;;;;;;;;;4990624;28;19928;-82
2023/07/25 09:54:22;;;;;;;;;;;;;;;;;;4990293;28;19921;-82
2023/07/25 09:56:47;;;;;;;;;;;;;;;;;;4974788;28;19929;-82
2023/07/25 09:59:13;;;;;;;;;;;;;;;;;;4990165;28;19928;-86
2023/07/25 10:01:39;;;;;;;;;;;;;;;;;;4990373;28;19934;-84
2023/07/25 10:04:05;;;;;;;;;;;;;;;;;;4983980;28;19928;-82
2023/07/25 10:06:31;;;;;;;;;;;;;;;;;;4990253;28;19973;-83
2023/07/25 10:08:57;;;;;;;;;;;;;;;;;;4990018;28;19975;-82
2023/07/25 10:11:24;;;;;;;;;;;;;;;;;;4988702;28;19921;-82
2023/07/25 10:13:50;;;;;;;;;;;;;;;;;;4973450;28;19983;-83
2023/07/25 10:16:17;;;;;;;;;;;;;;;;;;4973883;28;19921;-84
2023/07/25 10:18:43;;;;;;;;;;;;;;;;;;4973465;28;19974;-83
2023/07/25 10:21:09;;;;;;;;;;;;;;;;;;4973698;28;19925;-83
2023/07/25 10:23:35;;;;;;;;;;;;;;;;;;4974138;28;20695;-82
2023/07/25 10:26:01;;;;;;;;;;;;;;;;;;4985797;28;19925;-89
2023/07/25 10:28:27;;;;;;;;;;;;;;;;;;4996522;28;19933;-89
2023/07/25 10:30:53;;;;;;;;;;;;;;;;;;4970774;28;19925;-89
2023/07/25 10:33:19;;;;;;;;;;;;;;;;;;4969744;28;19971;-86
2023/07/25 10:35:45;;;;;;;;;;;;;;;;;;4983997;28;19948;-90
2023/07/25 10:38:11;;;;;;;;;;;;;;;;;;4986851;28;19933;-91
2023/07/25 10:40:37;;;;;;;;;;;;;;;;;;4973530;28;19933;-91
2023/07/25 10:43:03;;;;;;;;;;;;;;;;;;4991684;28;19926;-89
2023/07/25 10:45:29;;;;;;;;;;;;;;;;;;4970755;28;19976;-74
2023/07/25 10:47:55;;;;;;;;;;;;;;;;;;4987708;28;19926;-74
2023/07/25 10:50:21;;;;;;;;;;;;;;;;;;5005786;28;19925;-74
2023/07/25 10:52:47;;;;;;;;;;;;;;;;;;4992331;28;19979;-73
2023/07/25 10:55:13;;;;;;;;;;;;;;;;;;5006855;28;19930;-73
2023/07/25 10:57:39;;;;;;;;;;;;;;;;;;5011341;28;20316;-73
2023/07/25 11:00:05;;;;;;;;;;;;;;;;;;4979023;28;20382;-73
2023/07/25 11:02:31;;;;;;;;;;;;;;;;;;4979089;28;19983;-73
2023/07/25 11:04:57;;;;;;;;;;;;;;;;;;5019092;28;19933;-73
2023/07/25 11:07:23;;;;;;;;;;;;;;;;;;5006502;28;20015;-74
2023/07/25 11:09:49;;;;;;;;;;;;;;;;;;5015640;28;19974;-73
2023/07/25 11:12:15;;;;;;;;;;;;;;;;;;5004176;28;20004;-73
2023/07/25 11:14:42;;;;;;;;;;;;;;;;;;4978120;28;19994;-73
2023/07/25 11:17:08;;;;;;;;;;;;;;;;;;4984880;28;19982;-73
2023/07/25 11:19:34;;;;;;;;;;;;;;;;;;5002235;28;19922;-73
2023/07/25 11:22:00;;;;;;;;;;;;;;;;;;5004123;28;19929;-90
2023/07/25 11:24:26;;;;;;;;;;;;;;;;;;4974041;28;20012;-85
2023/07/25 11:26:52;;;;;;;;;;;;;;;;;;5011038;28;20059;-79
2023/07/25 11:29:18;;;;;;;;;;;;;;;;;;5003014;28;19929;-85
2023/07/25 11:31:44;;;;;;;;;;;;;;;;;;4986705;28;19943;-83
2023/07/25 11:34:10;;;;;;;;;;;;;;;;;;4987373;28;19928;-91
2023/07/25 11:36:37;;;;;;;;;;;;;;;;;;4980043;28;19922;-91
2023/07/25 11:39:04;;;;;;;;;;;;;;;;;;4987846;28;19931;-93
2023/07/25 11:41:30;;;;;;;;;;;;;;;;;;4972030;28;19925;-90
2023/07/25 11:43:56;;;;;;;;;;;;;;;;;;5007270;28;19921;-91
2023/07/25 11:46:22;;;;;;;;;;;;;;;;;;5008223;28;19930;-91
2023/07/25 11:48:48;;;;;;;;;;;;;;;;;;5006575;28;19986;-92
2023/07/25 11:51:14;;;;;;;;;;;;;;;;;;5015768;28;20362;-91
2023/07/25 11:53:40;;;;;;;;;;;;;;;;;;4987516;28;19925;-92
2023/07/25 11:56:06;;;;;;;;;;;;;;;;;;5024557;28;19994;-92
2023/07/25 11:58:32;;;;;;;;;;;;;;;;;;5000088;28;19983;-78
2023/07/25 12:00:58;;;;;;;;;;;;;;;;;;5022235;28;19925;-79
2023/07/25 12:03:24;;;;;;;;;;;;;;;;;;5011527;28;19932;-79
2023/07/25 12:05:50;;;;;;;;;;;;;;;;;;4990652;28;20405;-76
2023/07/25 12:08:16;;;;;;;;;;;;;;;;;;4997599;28;19963;-94
2023/07/25 12:10:42;;;;;;;;;;;;;;;;;;5021435;28;19987;-94
2023/07/25 12:13:08;;;;;;;;;;;;;;;;;;5008997;28;19925;-95
2023/07/25 12:15:34;;;;;;;;;;;;;;;;;;4994643;28;19928;-93
2023/07/25 12:18:00;;;;;;;;;;;;;;;;;;5010741;28;19925;-95
2023/07/25 12:20:26;;;;;;;;;;;;;;;;;;5011906;28;19926;-94
2023/07/25 12:22:52;;;;;;;;;;;;;;;;;;5011847;28;19925;-93
2023/07/25 12:25:18;;;;;;;;;;;;;;;;;;5025998;28;19928;-94
2023/07/25 12:27:44;;;;;;;;;;;;;;;;;;5019492;28;19958;-93
2023/07/25 12:30:10;;;;;;;;;;;;;;;;;;4975924;28;19922;-91
2023/07/25 12:32:36;;;;;;;;;;;;;;;;;;4975575;28;19922;-88
2023/07/25 12:35:02;;;;;;;;;;;;;;;;;;4991182;28;19925;-93
2023/07/25 12:37:28;;;;;;;;;;;;;;;;;;4978642;28;19922;-91
2023/07/25 12:39:54;;;;;;;;;;;;;;;;;;5025572;28;19921;-91
2023/07/25 12:42:20;;;;;;;;;;;;;;;;;;5011524;28;20270;-92
2023/07/25 12:44:46;;;;;;;;;;;;;;;;;;5026376;28;19929;-92
2023/07/25 12:47:12;;;;;;;;;;;;;;;;;;5027828;28;20345;-90
2023/07/25 12:49:38;;;;;;;;;;;;;;;;;;5006872;28;19921;-93
2023/07/25 12:52:04;;;;;;;;;;;;;;;;;;4997914;28;19929;-87
2023/07/25 12:54:30;;;;;;;;;;;;;;;;;;4991666;28;19921;-92
2023/07/25 12:56:56;;;;;;;;;;;;;;;;;;4970522;28;19929;-92
2023/07/25 12:59:22;;;;;;;;;;;;;;;;;;5006882;28;19922;-91
2023/07/25 13:01:48;;;;;;;;;;;;;;;;;;4990436;28;19929;-91
2023/07/25 13:04:14;;;;;;;;;;;;;;;;;;5005014;28;19928;-91
2023/07/25 13:06:40;;;;;;;;;;;;;;;;;;5026356;28;20015;-93
2023/07/25 13:09:06;;;;;;;;;;;;;;;;;;5026036;28;19921;-92
2023/07/25 13:11:32;;;;;;;;;;;;;;;;;;5025389;28;19922;-80
2023/07/25 13:13:58;;;;;;;;;;;;;;;;;;5021414;28;19925;-78
2023/07/25 13:16:23;;;;;;;;;;;;;;;;;;5020934;28;20309;-79
2023/07/25 13:18:49;;;;;;;;;;;;;;;;;;4988440;28;20015;-93
2023/07/25 13:21:15;;;;;;;;;;;;;;;;;;4974397;28;19925;-92
2023/07/25 13:23:41;;;;;;;;;;;;;;;;;;4984800;28;19922;-93
2023/07/25 13:26:07;;;;;;;;;;;;;;;;;;5013519;28;20439;-93
2023/07/25 13:28:33;;;;;;;;;;;;;;;;;;4977228;28;19960;-94
2023/07/25 13:30:59;;;;;;;;;;;;;;;;;;5010925;28;19929;-94
2023/07/25 13:33:25;;;;;;;;;;;;;;;;;;5017878;28;19925;-94
2023/07/25 13:35:51;;;;;;;;;;;;;;;;;;4993718;28;19925;-94
2023/07/25 13:38:17;;;;;;;;;;;;;;;;;;4982411;28;20427;-91
2023/07/25 13:40:43;;;;;;;;;;;;;;;;;;4990370;28;19952;-95
2023/07/25 13:43:09;;;;;;;;;;;;;;;;;;4974094;28;19982;-92
2023/07/25 13:45:36;;;;;;;;;;;;;;;;;;4989833;28;19970;-90
2023/07/25 13:48:02;;;;;;;;;;;;;;;;;;4988817;28;19926;-92
2023/07/25 13:50:28;;;;;;;;;;;;;;;;;;4973950;28;20004;-89
2023/07/25 13:52:54;;;;;;;;;;;;;;;;;;4989926;28;20025;-92
2023/07/25 13:55:20;;;;;;;;;;;;;;;;;;4974248;28;19922;-91
2023/07/25 13:57:46;;;;;;;;;;;;;;;;;;4973358;28;19922;-92
2023/07/25 14:00:12;;;;;;;;;;;;;;;;;;5026167;28;19944;-92
2023/07/25 14:02:38;;;;;;;;;;;;;;;;;;5006409;28;19925;-88
2023/07/25 14:05:04;;;;;;;;;;;;;;;;;;5024857;28;19929;-92
2023/07/25 14:07:30;;;;;;;;;;;;;;;;;;5019701;28;19922;-88
2023/07/25 14:09:56;;;;;;;;;;;;;;;;;;5010220;28;20011;-91
2023/07/25 14:12:22;;;;;;;;;;;;;;;;;;5014690;28;19979;-93
2023/07/25 14:14:48;;;;;;;;;;;;;;;;;;5034170;28;19921;-92
2023/07/25 14:17:14;;;;;;;;;;;;;;;;;;5014665;28;19929;-91
2023/07/25 14:19:40;;;;;;;;;;;;;;;;;;5024888;28;19921;-92
2023/07/25 14:22:06;;;;;;;;;;;;;;;;;;5009024;28;19925;-92
2023/07/25 14:24:32;;;;;;;;;;;;;;;;;;5025988;28;19928;-92
2023/07/25 14:26:58;;;;;;;;;;;;;;;;;;5001487;28;19926;-93
2023/07/25 14:29:24;;;;;;;;;;;;;;;;;;5025295;28;19968;-92
2023/07/25 14:31:50;;;;;;;;;;;;;;;;;;5010796;28;20448;-90
2023/07/25 14:34:16;;;;;;;;;;;;;;;;;;5005645;28;20016;-91
2023/07/25 14:36:41;;;;;;;;;;;;;;;;;;4989768;28;20016;-88
2023/07/25 14:39:07;;;;;;;;;;;;;;;;;;5010196;28;20009;-91
2023/07/25 14:41:33;;;;;;;;;;;;;;;;;;5014542;28;19921;-91
2023/07/25 14:43:59;;;;;;;;;;;;;;;;;;4991579;28;19921;-92
2023/07/25 14:46:25;;;;;;;;;;;;;;;;;;5014521;28;19929;-91
2023/07/25 14:48:51;;;;;;;;;;;;;;;;;;5015447;28;20375;-93
2023/07/25 14:51:17;;;;;;;;;;;;;;;;;;4990169;28;19942;-90
2023/07/25 14:53:43;;;;;;;;;;;;;;;;;;4988810;28;19922;-85
2023/07/25 14:56:09;;;;;;;;;;;;;;;;;;5015975;28;20382;-91
2023/07/25 14:58:35;;;;;;;;;;;;;;;;;;4997370;28;19975;-89
2023/07/25 15:01:01;;;;;;;;;;;;;;;;;;4992652;28;19922;-93
2023/07/25 15:03:27;;;;;;;;;;;;;;;;;;4972391;28;19974;-89
2023/07/25 15:05:53;;;;;;;;;;;;;;;;;;4972903;28;19926;-89
2023/07/25 15:08:19;;;;;;;;;;;;;;;;;;4995425;28;19922;-90
2023/07/25 15:10:45;;;;;;;;;;;;;;;;;;4994618;28;19961;-87
2023/07/25 15:13:11;;;;;;;;;;;;;;;;;;5016082;28;20027;-89
2023/07/25 15:15:37;;;;;;;;;;;;;;;;;;5016550;28;19967;-87
2023/07/25 15:18:03;;;;;;;;;;;;;;;;;;4996695;28;19929;-91
2023/07/25 15:20:29;;;;;;;;;;;;;;;;;;4984977;28;19922;-91
2023/07/25 15:22:55;;;;;;;;;;;;;;;;;;5016816;28;19922;-90
2023/07/25 15:25:21;;;;;;;;;;;;;;;;;;5001167;28;19922;-92
2023/07/25 15:27:47;;;;;;;;;;;;;;;;;;4988372;28;20283;-85
2023/07/25 15:30:13;;;;;;;;;;;;;;;;;;5021350;28;19995;-85
2023/07/25 15:37:51;;;;;;;;;;;;;;;;;;5429815;23;19934;-89
2023/07/25 15:40:17;;;;;;;;;;;;;;;;;;4905427;29;20022;-83
2023/07/25 15:42:43;;;;;;;;;;;;;;;;;;4904317;29;19931;-84
2023/07/25 15:45:09;;;;;;;;;;;;;;;;;;4897562;28;19988;-82
2023/07/25 15:47:35;;;;;;;;;;;;;;;;;;4917694;29;20005;-84
2023/07/25 15:50:01;;;;;;;;;;;;;;;;;;4920789;29;19949;-83
2023/07/25 15:52:27;;;;;;;;;;;;;;;;;;4921814;29;19927;-83
2023/07/25 15:54:53;;;;;;;;;;;;;;;;;;4916401;29;19939;-83
2023/07/25 15:57:19;;;;;;;;;;;;;;;;;;4908431;29;19929;-83
2023/07/25 15:59:45;;;;;;;;;;;;;;;;;;4914891;28;20283;-83
2023/07/25 16:02:11;;;;;;;;;;;;;;;;;;4934769;28;19973;-85
2023/07/25 16:04:37;;;;;;;;;;;;;;;;;;4921337;28;19923;-81
2023/07/25 16:07:03;;;;;;;;;;;;;;;;;;4910889;29;19938;-84
2023/07/25 16:09:29;;;;;;;;;;;;;;;;;;4952152;28;19946;-82
2023/07/25 16:11:55;;;;;;;;;;;;;;;;;;4928889;29;20014;-81
2023/07/25 16:14:21;;;;;;;;;;;;;;;;;;4932152;28;20369;-83
2023/07/25 16:16:47;;;;;;;;;;;;;;;;;;4935717;28;20172;-83
2023/07/25 16:19:15;;;;;;;;;;;;;;;;;;4932152;28;20355;-83
2023/07/25 16:21:41;;;;;;;;;;;;;;;;;;4901666;28;19923;-82
2023/07/25 16:24:07;;;;;;;;;;;;;;;;;;4925839;28;19927;-81
2023/07/25 16:26:33;;;;;;;;;;;;;;;;;;4921318;29;19953;-84
2023/07/25 16:28:59;;;;;;;;;;;;;;;;;;4915430;29;19922;-82
2023/07/25 16:31:25;;;;;;;;;;;;;;;;;;4932599;28;19974;-83
2023/07/25 16:33:51;;;;;;;;;;;;;;;;;;4918019;28;19930;-81
2023/07/25 16:36:17;;;;;;;;;;;;;;;;;;4915369;29;19922;-80
2023/07/25 16:38:43;;;;;;;;;;;;;;;;;;4911191;28;19938;-82
2023/07/25 16:41:10;;;;;;;;;;;;;;;;;;4919863;28;19962;-83